Port Mcnicoll, Canada
Current Conditions -  °F | °C
As of 11:39 AM on Thursday 30 Oct 2014 (Local Time) from CYQA Reporting Station
Scattered Clouds Scattered Clouds  
Wind Chill: 32°   Ceiling: Unl
Heat Index: 39°   Visibility: 9mi
Dew Point: 32°   Wind: 10mph
Humidity: 75%   Direction: 320°NW
Pressure: 30.05"   Gusts: NA
Location:  44.75°N, 79.82°W
Report Text: CYQA 301539Z AUTO 32009KT 290V010 9SM SCT020 04/M00 A3005 RMK SLP187
Loading
Personal Weather Stations






























Interactive Weather Map
Tropical Storm Tracking
New forecast layout! Learn more

10-Day Weather Forecast

Advertisements
Track Severe Weather on mobile